createdAt,value
2022-09-28T00:01:13.834Z,86.15
2022-09-28T00:03:41.154Z,85.57
2022-09-28T00:06:11.536Z,85.11
2022-09-28T00:08:39.164Z,85.31
2022-09-28T00:11:09.279Z,84.91
2022-09-28T00:13:36.521Z,84.95
2022-09-28T00:16:06.317Z,84.88
2022-09-28T00:18:34.298Z,84.98
2022-09-28T00:21:08.476Z,85.13
2022-09-28T00:23:56.610Z,85.25
2022-09-28T00:26:24.706Z,85.20
2022-09-28T00:28:53.017Z,85.22
2022-09-28T00:31:21.142Z,85.66
2022-09-28T00:33:52.366Z,85.67
2022-09-28T00:36:19.899Z,85.35
2022-09-28T00:38:47.007Z,85.22
2022-09-28T00:41:14.834Z,85.83
2022-09-28T00:43:42.447Z,85.86
2022-09-28T00:46:24.789Z,85.65
2022-09-28T00:48:59.021Z,86.26
2022-09-28T00:51:27.051Z,87.39
2022-09-28T00:53:56.156Z,88.41
2022-09-28T00:56:26.571Z,88.59
2022-09-28T00:58:54.665Z,89.09
2022-09-28T01:01:22.460Z,89.01
2022-09-28T01:03:49.751Z,88.27
2022-09-28T01:06:20.709Z,87.34
2022-09-28T01:08:51.436Z,87.39
2022-09-28T01:11:19.622Z,88.60
2022-09-28T01:13:50.413Z,88.54
2022-09-28T01:16:57.505Z,89.12
2022-09-28T01:19:53.376Z,88.88
2022-09-28T01:22:55.645Z,89.13
2022-09-28T01:25:42.893Z,88.97
2022-09-28T01:28:17.223Z,89.61
2022-09-28T01:31:10.335Z,90.32
2022-09-28T01:33:42.887Z,89.98
2022-09-28T01:36:19.701Z,90.28
2022-09-28T01:38:53.139Z,90.39
2022-09-28T01:41:23.519Z,90.28
2022-09-28T01:43:55.391Z,89.94
2022-09-28T01:46:27.930Z,89.82
2022-09-28T01:48:59.090Z,90.15
2022-09-28T01:52:00.754Z,90.58
2022-09-28T01:54:53.601Z,90.66
2022-09-28T01:57:50.006Z,91.04
2022-09-28T02:00:20.575Z,90.46
2022-09-28T02:03:03.138Z,90.27
2022-09-28T02:05:41.980Z,90.57
2022-09-28T02:08:38.062Z,90.81
2022-09-28T02:11:13.668Z,90.99
2022-09-28T02:13:47.019Z,91.07
2022-09-28T02:16:21.559Z,91.15
2022-09-28T02:18:50.904Z,91.50
2022-09-28T02:21:25.856Z,90.90
2022-09-28T02:23:59.506Z,91.56
2022-09-28T02:26:32.217Z,91.96
2022-09-28T02:28:59.599Z,92.08
2022-09-28T02:31:27.978Z,91.25
2022-09-28T02:33:57.280Z,90.69
2022-09-28T02:36:28.866Z,91.55
2022-09-28T02:38:58.296Z,91.25
2022-09-28T02:42:02.926Z,92.03
2022-09-28T02:44:33.013Z,93.09
2022-09-28T02:47:16.163Z,93.06
2022-09-28T02:50:03.635Z,92.86
2022-09-28T02:52:49.651Z,92.66
2022-09-28T02:55:22.759Z,93.56
2022-09-28T02:57:52.905Z,93.46
2022-09-28T03:00:23.083Z,93.66
2022-09-28T03:03:11.901Z,94.74
2022-09-28T03:06:13.878Z,95.35
2022-09-28T03:08:58.982Z,95.63
2022-09-28T03:11:43.707Z,94.97
2022-09-28T03:14:11.514Z,94.01
2022-09-28T03:16:49.348Z,93.20
2022-09-28T03:19:20.207Z,93.35
2022-09-28T03:21:47.328Z,92.88
2022-09-28T03:24:15.288Z,91.74
2022-09-28T03:26:42.394Z,93.19
2022-09-28T03:29:10.582Z,93.66
2022-09-28T03:31:39.020Z,93.13
2022-09-28T03:34:09.039Z,92.67
2022-09-28T03:36:36.311Z,92.99
2022-09-28T03:39:04.595Z,93.53
2022-09-28T03:41:31.782Z,93.50
2022-09-28T03:43:58.961Z,93.91
2022-09-28T03:46:28.479Z,94.07
2022-09-28T03:49:00.157Z,94.49
2022-09-28T03:51:29.485Z,94.10
2022-09-28T03:53:57.270Z,93.98
2022-09-28T03:56:24.365Z,93.88
2022-09-28T03:58:51.854Z,93.85
2022-09-28T04:01:19.048Z,94.21
2022-09-28T04:03:47.945Z,94.42
2022-09-28T04:06:15.349Z,94.45
2022-09-28T04:08:43.293Z,94.85
2022-09-28T04:11:11.206Z,95.25
2022-09-28T04:13:38.526Z,95.56
2022-09-28T04:16:09.919Z,95.79
2022-09-28T04:18:37.129Z,95.88
2022-09-28T04:21:23.083Z,95.66
2022-09-28T04:23:55.877Z,95.51
2022-09-28T04:26:24.975Z,95.28
2022-09-28T04:29:10.911Z,95.55
2022-09-28T04:31:52.782Z,96.07
2022-09-28T04:34:23.293Z,96.29
2022-09-28T04:36:51.129Z,97.15
2022-09-28T04:39:21.699Z,96.09
2022-09-28T04:41:52.264Z,96.74
2022-09-28T04:44:19.682Z,96.56
2022-09-28T04:46:48.133Z,97.00
2022-09-28T04:49:38.466Z,97.59
2022-09-28T04:52:18.707Z,96.91
2022-09-28T04:54:48.957Z,97.42
2022-09-28T04:57:16.834Z,97.94
2022-09-28T04:59:44.195Z,98.41
2022-09-28T05:02:14.938Z,98.81
2022-09-28T05:05:14.645Z,99.56
2022-09-28T05:08:00.259Z,99.72
2022-09-28T05:10:27.467Z,100.00
2022-09-28T05:12:54.585Z,95.67
2022-09-28T05:15:21.702Z,88.99
2022-09-28T05:17:49.337Z,85.18
2022-09-28T05:20:41.054Z,82.98
2022-09-28T05:23:12.853Z,82.51
2022-09-28T05:25:42.801Z,80.29
2022-09-28T05:28:25.904Z,77.71
2022-09-28T05:31:28.223Z,77.32
2022-09-28T05:34:33.915Z,76.89
2022-09-28T05:37:01.234Z,76.09
2022-09-28T05:39:28.412Z,75.53
2022-09-28T05:41:57.802Z,74.55
2022-09-28T05:44:25.837Z,74.48
2022-09-28T05:46:54.651Z,73.95
2022-09-28T05:49:21.743Z,75.45
2022-09-28T05:51:48.830Z,79.35
2022-09-28T05:54:16.001Z,84.37
2022-09-28T05:56:46.415Z,86.56
2022-09-28T05:59:13.683Z,87.21
2022-09-28T06:01:41.908Z,89.39
2022-09-28T06:04:11.222Z,91.41
2022-09-28T06:06:39.091Z,91.91
2022-09-28T06:09:06.187Z,92.45
2022-09-28T06:11:33.589Z,92.92
2022-09-28T06:14:07.578Z,92.65
2022-09-28T06:16:35.112Z,91.61
2022-09-28T06:19:02.355Z,91.95
2022-09-28T06:21:42.271Z,91.58
2022-09-28T06:24:09.481Z,90.59
2022-09-28T06:26:37.880Z,89.87
2022-09-28T06:29:06.195Z,90.52
2022-09-28T06:31:33.607Z,90.40
2022-09-28T06:34:01.748Z,92.14
2022-09-28T06:36:31.240Z,91.12
2022-09-28T06:38:58.492Z,91.60
2022-09-28T06:41:25.812Z,91.74
2022-09-28T06:43:53.114Z,92.15
2022-09-28T06:46:39.332Z,91.26
2022-09-28T06:49:30.227Z,90.99
2022-09-28T06:52:15.831Z,90.52
2022-09-28T06:55:04.113Z,91.47
2022-09-28T06:57:41.515Z,91.15
2022-09-28T07:00:09.216Z,91.30
2022-09-28T07:02:36.685Z,90.79
2022-09-28T07:05:27.529Z,90.84
2022-09-28T07:08:04.593Z,91.03
2022-09-28T07:11:09.946Z,91.02
2022-09-28T07:13:59.885Z,90.57
2022-09-28T07:16:33.086Z,89.91
2022-09-28T07:19:16.434Z,89.84
2022-09-28T07:21:46.079Z,88.64
2022-09-28T07:24:15.993Z,88.95
2022-09-28T07:27:04.429Z,88.67
2022-09-28T07:29:55.703Z,88.27
2022-09-28T07:32:37.164Z,86.88
2022-09-28T07:35:24.098Z,85.70
2022-09-28T07:38:01.402Z,86.45
2022-09-28T07:40:48.564Z,85.29
2022-09-28T07:43:20.631Z,84.36
2022-09-28T07:45:52.406Z,85.06
2022-09-28T07:48:20.847Z,85.22
2022-09-28T07:51:11.515Z,84.42
2022-09-28T07:54:01.749Z,84.30
2022-09-28T07:56:57.882Z,82.64
2022-09-28T07:59:31.713Z,83.21
2022-09-28T08:02:20.353Z,83.46
2022-09-28T08:04:48.663Z,83.57
2022-09-28T08:07:21.553Z,82.80
2022-09-28T08:09:56.070Z,82.76
2022-09-28T08:12:29.255Z,83.45
2022-09-28T08:15:12.879Z,83.85
2022-09-28T08:18:04.286Z,83.41
2022-09-28T08:20:51.848Z,83.63
2022-09-28T08:23:20.418Z,82.13
2022-09-28T08:25:52.679Z,80.32
2022-09-28T08:28:22.556Z,79.41
2022-09-28T08:30:51.867Z,79.09
2022-09-28T08:33:41.236Z,78.07
2022-09-28T08:36:28.240Z,77.88
2022-09-28T08:39:34.623Z,77.71
2022-09-28T08:42:35.402Z,75.15
2022-09-28T08:45:35.930Z,74.19
2022-09-28T08:48:48.568Z,77.46
2022-09-28T08:51:53.482Z,77.61
2022-09-28T08:55:02.899Z,77.28
2022-09-28T08:57:45.068Z,76.39
2022-09-28T09:00:21.443Z,76.33
2022-09-28T09:02:49.389Z,75.34
2022-09-28T09:05:23.144Z,73.46
2022-09-28T09:08:23.943Z,72.52
2022-09-28T09:11:23.217Z,70.29
2022-09-28T09:13:56.331Z,69.41
2022-09-28T09:16:47.015Z,69.03
2022-09-28T09:20:03.781Z,66.05
2022-09-28T09:22:57.486Z,64.85
2022-09-28T09:25:42.362Z,65.63
2022-09-28T09:28:31.769Z,66.72
2022-09-28T09:31:22.661Z,64.89
2022-09-28T09:34:38.911Z,66.04
2022-09-28T09:37:34.520Z,63.88
2022-09-28T09:41:02.449Z,64.29
2022-09-28T09:44:11.730Z,67.21
2022-09-28T09:47:08.048Z,64.19
2022-09-28T09:49:55.978Z,63.59
2022-09-28T09:55:15.238Z,65.60
2022-09-28T09:57:57.886Z,62.92
2022-09-28T10:00:40.268Z,62.40
2022-09-28T10:03:24.924Z,64.62
2022-09-28T10:06:01.290Z,64.63
2022-09-28T10:08:34.308Z,65.66
2022-09-28T10:11:16.858Z,64.28
2022-09-28T10:13:49.289Z,63.89
2022-09-28T10:16:39.678Z,64.59
2022-09-28T10:19:13.809Z,62.80
2022-09-28T10:22:04.934Z,61.97
2022-09-28T10:24:36.475Z,61.91
2022-09-28T10:27:11.549Z,61.49
2022-09-28T10:29:50.853Z,60.44
2022-09-28T10:32:37.766Z,59.61
2022-09-28T10:35:14.914Z,59.53
2022-09-28T10:37:57.437Z,58.43
2022-09-28T10:41:00.612Z,58.60
2022-09-28T10:44:06.937Z,59.67
2022-09-28T10:47:00.929Z,60.47
2022-09-28T10:49:50.552Z,59.08
2022-09-28T10:52:47.578Z,58.03
2022-09-28T10:56:04.910Z,56.91
2022-09-28T10:58:41.982Z,56.15
2022-09-28T11:01:21.428Z,57.71
2022-09-28T11:03:53.508Z,56.39
2022-09-28T11:06:32.836Z,56.38
2022-09-28T11:09:07.454Z,55.38
2022-09-28T11:11:41.982Z,57.09
2022-09-28T11:14:27.534Z,56.62
2022-09-28T11:17:17.459Z,56.19
2022-09-28T11:19:46.077Z,56.34
2022-09-28T11:22:22.167Z,55.97
2022-09-28T11:24:53.142Z,53.08
2022-09-28T11:27:23.175Z,55.37
2022-09-28T11:29:57.815Z,52.56
2022-09-28T11:32:43.528Z,53.16
2022-09-28T11:35:50.203Z,52.05
2022-09-28T11:38:29.484Z,50.51
2022-09-28T11:41:37.811Z,53.06
2022-09-28T11:44:11.304Z,54.07
2022-09-28T11:46:38.454Z,53.34
2022-09-28T11:49:38.050Z,51.00
2022-09-28T11:52:36.141Z,51.15
2022-09-28T11:55:12.160Z,51.11
2022-09-28T11:57:43.023Z,51.14
2022-09-28T12:00:22.518Z,50.74
2022-09-28T12:03:19.811Z,49.44
2022-09-28T12:06:01.141Z,46.72
2022-09-28T12:08:32.194Z,47.85
2022-09-28T12:11:26.435Z,47.49
2022-09-28T12:14:24.303Z,48.32
2022-09-28T12:17:07.930Z,48.29
2022-09-28T12:20:02.226Z,45.69
2022-09-28T12:22:38.308Z,44.51
2022-09-28T12:25:12.583Z,45.87
2022-09-28T12:27:53.368Z,46.10
2022-09-28T12:30:22.490Z,43.38
2022-09-28T12:32:56.291Z,42.20
2022-09-28T12:35:56.763Z,45.04
2022-09-28T12:39:18.673Z,45.42
2022-09-28T12:41:55.813Z,43.85
2022-09-28T12:44:50.487Z,46.15
2022-09-28T12:47:37.543Z,46.68
2022-09-28T12:50:39.879Z,48.49
2022-09-28T12:53:20.105Z,49.75
2022-09-28T12:56:04.767Z,50.23
2022-09-28T12:58:47.993Z,46.20
2022-09-28T13:01:46.426Z,47.19
2022-09-28T13:04:28.494Z,46.16
2022-09-28T13:07:29.465Z,47.18
2022-09-28T13:10:07.278Z,46.28
2022-09-28T13:12:41.691Z,44.91
2022-09-28T13:15:29.525Z,46.43
2022-09-28T13:18:06.194Z,47.65
2022-09-28T13:20:44.153Z,47.61
2022-09-28T13:23:39.651Z,48.52
2022-09-28T13:26:28.119Z,47.96
2022-09-28T13:29:02.147Z,45.66
2022-09-28T13:31:34.958Z,47.75
2022-09-28T13:34:06.131Z,48.63
2022-09-28T13:36:33.172Z,48.18
2022-09-28T13:39:01.359Z,47.68
2022-09-28T13:41:37.781Z,46.41
2022-09-28T13:44:13.577Z,49.17
2022-09-28T13:47:12.923Z,47.63
2022-09-28T13:49:48.977Z,48.45
2022-09-28T13:52:44.699Z,48.16
2022-09-28T13:55:33.118Z,47.54
2022-09-28T13:58:05.538Z,49.92
2022-09-28T14:00:46.081Z,48.79
2022-09-28T14:03:26.806Z,47.01
2022-09-28T14:06:10.890Z,47.54
2022-09-28T14:09:04.866Z,47.61
2022-09-28T14:11:34.147Z,49.23
2022-09-28T14:14:05.559Z,49.65
2022-09-28T14:16:35.486Z,48.28
2022-09-28T14:19:08.228Z,49.52
2022-09-28T14:22:14.391Z,50.87
2022-09-28T14:24:47.527Z,50.59
2022-09-28T14:27:26.778Z,51.63
2022-09-28T14:30:20.067Z,49.19
2022-09-28T14:32:58.423Z,51.09
2022-09-28T14:35:40.082Z,48.04
2022-09-28T14:38:35.554Z,48.92
2022-09-28T14:41:12.435Z,47.57
2022-09-28T14:43:45.760Z,49.90
2022-09-28T14:46:14.448Z,48.72
2022-09-28T14:48:49.770Z,46.46
2022-09-28T14:51:35.442Z,46.15
2022-09-28T14:54:02.474Z,45.99
2022-09-28T14:56:53.328Z,44.16
2022-09-28T14:59:26.805Z,40.38
2022-09-28T15:02:12.384Z,41.71
2022-09-28T15:04:52.916Z,42.28
2022-09-28T15:07:29.680Z,40.08
2022-09-28T15:10:00.822Z,39.47
2022-09-28T15:12:30.326Z,39.50
2022-09-28T15:15:02.178Z,38.34
2022-09-28T15:17:36.988Z,41.12
2022-09-28T15:20:12.199Z,43.63
2022-09-28T15:22:44.799Z,45.37
2022-09-28T15:25:15.415Z,45.65
2022-09-28T15:27:42.776Z,45.82
2022-09-28T15:30:19.087Z,47.27
2022-09-28T15:32:46.341Z,48.53
2022-09-28T15:35:20.578Z,50.47
2022-09-28T15:37:51.939Z,49.55
2022-09-28T15:40:22.417Z,50.42
2022-09-28T15:42:49.599Z,53.35
2022-09-28T15:45:36.650Z,53.91
2022-09-28T15:48:23.474Z,53.93
2022-09-28T15:51:13.123Z,55.29
2022-09-28T15:53:51.104Z,54.13
2022-09-28T15:56:18.335Z,55.38
2022-09-28T15:59:18.858Z,55.65
2022-09-28T16:04:37.690Z,56.39
2022-09-28T16:07:10.550Z,56.94
2022-09-28T16:10:11.569Z,57.33
2022-09-28T16:12:46.445Z,58.51
2022-09-28T16:15:20.440Z,58.08
2022-09-28T16:17:57.638Z,60.01
2022-09-28T16:20:35.550Z,61.22
2022-09-28T16:23:20.538Z,61.36
2022-09-28T16:25:51.707Z,61.84
2022-09-28T16:28:50.800Z,62.54
2022-09-28T16:31:20.891Z,62.23
2022-09-28T16:33:59.544Z,62.02
2022-09-28T16:36:43.412Z,63.67
2022-09-28T16:39:11.680Z,64.34
2022-09-28T16:41:41.783Z,65.09
2022-09-28T16:44:16.918Z,65.92
2022-09-28T16:46:45.268Z,66.42
2022-09-28T16:49:19.933Z,66.59
2022-09-28T16:51:47.850Z,67.24
2022-09-28T16:54:36.535Z,68.47
2022-09-28T16:57:05.458Z,69.60
2022-09-28T16:59:33.765Z,70.00
2022-09-28T17:02:00.953Z,70.14
2022-09-28T17:04:28.741Z,71.31
2022-09-28T17:06:56.635Z,72.21
2022-09-28T17:09:23.908Z,72.30
2022-09-28T17:11:56.631Z,72.32
2022-09-28T17:14:24.072Z,73.86
2022-09-28T17:17:13.747Z,73.87
2022-09-28T17:19:41.910Z,74.05
2022-09-28T17:22:09.914Z,74.54
2022-09-28T17:24:37.307Z,74.90
2022-09-28T17:27:06.824Z,75.18
2022-09-28T17:29:33.924Z,75.50
2022-09-28T17:32:01.259Z,76.12
2022-09-28T17:34:28.702Z,76.79
2022-09-28T17:36:55.918Z,76.95
2022-09-28T17:39:25.014Z,77.95
2022-09-28T17:41:52.291Z,77.86
2022-09-28T17:44:19.801Z,78.98
2022-09-28T17:46:48.941Z,79.43
2022-09-28T17:49:16.865Z,80.14
2022-09-28T17:51:44.057Z,80.34
2022-09-28T17:54:12.936Z,80.68
2022-09-28T17:56:40.140Z,80.48
2022-09-28T17:59:12.591Z,80.96
2022-09-28T18:01:40.597Z,81.22
2022-09-28T18:04:15.895Z,81.18
2022-09-28T18:06:54.978Z,82.95
2022-09-28T18:09:25.242Z,83.46
2022-09-28T18:12:03.472Z,83.76
2022-09-28T18:14:30.654Z,84.55
2022-09-28T18:16:57.742Z,84.74
2022-09-28T18:19:28.563Z,85.02
2022-09-28T18:21:59.032Z,85.19
2022-09-28T18:24:26.119Z,85.64
2022-09-28T18:26:53.173Z,85.46
2022-09-28T18:29:20.222Z,85.93
2022-09-28T18:31:48.711Z,86.15
2022-09-28T18:34:16.009Z,85.95
2022-09-28T18:36:43.237Z,85.79
2022-09-28T18:39:10.334Z,85.57
2022-09-28T18:41:37.478Z,85.91
2022-09-28T18:44:04.649Z,85.98
2022-09-28T18:46:36.294Z,86.02
2022-09-28T18:49:04.663Z,86.56
2022-09-28T18:51:31.814Z,87.43
2022-09-28T18:54:00.668Z,87.75
2022-09-28T18:56:27.823Z,87.00
2022-09-28T18:58:54.954Z,87.48
2022-09-28T19:01:30.742Z,87.73
2022-09-28T19:04:00.160Z,87.83
2022-09-28T19:06:27.682Z,88.84
2022-09-28T19:08:55.690Z,89.37
2022-09-28T19:11:24.067Z,89.42
2022-09-28T19:13:53.175Z,89.85
2022-09-28T19:16:26.702Z,90.76
2022-09-28T19:18:53.913Z,91.18
2022-09-28T19:21:21.511Z,90.97
2022-09-28T19:23:49.772Z,90.34
2022-09-28T19:26:22.699Z,88.85
2022-09-28T19:28:50.444Z,88.43
2022-09-28T19:31:17.551Z,89.13
2022-09-28T19:33:46.431Z,90.51
2022-09-28T19:36:18.183Z,91.36
2022-09-28T19:38:46.116Z,91.76
2022-09-28T19:41:37.801Z,91.96
2022-09-28T19:44:27.135Z,92.79
2022-09-28T19:47:06.898Z,92.74
2022-09-28T19:49:39.038Z,92.99
2022-09-28T19:52:15.646Z,93.44
2022-09-28T19:54:57.033Z,93.59
2022-09-28T19:57:29.837Z,94.17
2022-09-28T20:00:02.163Z,94.94
2022-09-28T20:02:33.581Z,94.66
2022-09-28T20:05:00.782Z,95.05
2022-09-28T20:07:27.933Z,95.48
2022-09-28T20:09:55.050Z,95.95
2022-09-28T20:12:22.396Z,95.80
2022-09-28T20:14:49.503Z,95.88
2022-09-28T20:17:16.595Z,97.06
2022-09-28T20:19:43.776Z,96.34
2022-09-28T20:22:12.165Z,95.56
2022-09-28T20:24:39.349Z,96.53
2022-09-28T20:27:06.715Z,97.28
2022-09-28T20:29:35.242Z,97.21
2022-09-28T20:32:03.845Z,97.01
2022-09-28T20:34:31.225Z,97.16
2022-09-28T20:36:58.330Z,97.28
2022-09-28T20:39:25.469Z,97.37
2022-09-28T20:41:53.520Z,97.66
2022-09-28T20:44:20.937Z,97.96
2022-09-28T20:46:51.612Z,98.14
2022-09-28T20:49:18.747Z,97.72
2022-09-28T20:51:45.962Z,97.36
2022-09-28T20:54:13.065Z,98.10
2022-09-28T20:56:40.135Z,98.39
2022-09-28T20:59:09.816Z,98.44
2022-09-28T21:15:56.139Z,98.90
2022-09-28T21:18:37.869Z,98.94
2022-09-28T21:39:56.355Z,99.92
2022-09-28T21:55:46.440Z,100.00
2022-09-28T22:08:57.744Z,100.00
2022-09-28T22:11:28.100Z,100.00
2022-09-28T22:14:00.022Z,100.00
2022-09-28T22:16:38.502Z,100.00
2022-09-28T22:31:16.345Z,100.00
2022-09-28T22:34:02.279Z,100.00
